sensor_id;sensor_type;location;lat;lon;timestamp;pressure;altitude;pressure_sealevel;temperature;humidity
50268;BME280;36153;50.960;6.220;2022-10-17T00:00:52;100673.47;;;19.39;65.18
50268;BME280;36153;50.960;6.220;2022-10-17T00:03:53;100676.22;;;19.33;64.97
50268;BME280;36153;50.960;6.220;2022-10-17T00:06:53;100673.94;;;19.17;65.37
50268;BME280;36153;50.960;6.220;2022-10-17T00:09:54;100679.09;;;19.23;65.30
50268;BME280;36153;50.960;6.220;2022-10-17T00:12:54;100685.03;;;19.32;64.75
50268;BME280;36153;50.960;6.220;2022-10-17T00:15:55;100675.47;;;19.27;65.28
50268;BME280;36153;50.960;6.220;2022-10-17T00:18:56;100673.81;;;19.22;65.40
50268;BME280;36153;50.960;6.220;2022-10-17T00:21:56;100675.41;;;19.31;65.04
50268;BME280;36153;50.960;6.220;2022-10-17T00:24:57;100669.44;;;19.22;64.93
50268;BME280;36153;50.960;6.220;2022-10-17T00:27:57;100668.84;;;19.08;65.30
50268;BME280;36153;50.960;6.220;2022-10-17T00:30:59;100669.69;;;19.10;65.47
50268;BME280;36153;50.960;6.220;2022-10-17T00:34:00;100667.13;;;19.07;65.18
50268;BME280;36153;50.960;6.220;2022-10-17T00:37:00;100669.50;;;19.19;64.86
50268;BME280;36153;50.960;6.220;2022-10-17T00:40:00;100678.66;;;19.03;64.99
50268;BME280;36153;50.960;6.220;2022-10-17T00:43:01;100670.97;;;18.90;65.00
50268;BME280;36153;50.960;6.220;2022-10-17T00:46:01;100669.19;;;18.91;65.42
50268;BME280;36153;50.960;6.220;2022-10-17T00:49:08;100668.13;;;19.01;65.46
50268;BME280;36153;50.960;6.220;2022-10-17T00:52:17;100672.44;;;19.04;65.12
50268;BME280;36153;50.960;6.220;2022-10-17T00:55:23;100671.69;;;18.99;64.88
50268;BME280;36153;50.960;6.220;2022-10-17T00:58:24;100673.41;;;19.00;65.14
50268;BME280;36153;50.960;6.220;2022-10-17T01:01:24;100677.03;;;18.94;65.11
50268;BME280;36153;50.960;6.220;2022-10-17T01:04:25;100672.66;;;18.95;64.90
50268;BME280;36153;50.960;6.220;2022-10-17T01:07:26;100669.81;;;19.05;65.35
50268;BME280;36153;50.960;6.220;2022-10-17T01:10:41;100671.44;;;19.11;65.03
50268;BME280;36153;50.960;6.220;2022-10-17T01:16:50;100663.78;;;19.39;65.12
50268;BME280;36153;50.960;6.220;2022-10-17T01:30:41;100665.59;;;19.37;64.89
50268;BME280;36153;50.960;6.220;2022-10-17T01:33:52;100670.13;;;19.31;64.90
50268;BME280;36153;50.960;6.220;2022-10-17T01:46:38;100657.13;;;19.21;65.37
50268;BME280;36153;50.960;6.220;2022-10-17T01:49:39;100652.81;;;19.17;65.19
50268;BME280;36153;50.960;6.220;2022-10-17T01:52:47;100651.81;;;19.23;64.98
50268;BME280;36153;50.960;6.220;2022-10-17T01:55:53;100650.69;;;19.35;64.85
50268;BME280;36153;50.960;6.220;2022-10-17T01:59:06;100650.56;;;19.39;64.75
50268;BME280;36153;50.960;6.220;2022-10-17T02:02:11;100656.66;;;19.41;64.48
50268;BME280;36153;50.960;6.220;2022-10-17T02:05:15;100654.91;;;19.42;64.82
50268;BME280;36153;50.960;6.220;2022-10-17T02:08:38;100648.00;;;19.36;64.48
50268;BME280;36153;50.960;6.220;2022-10-17T02:11:39;100647.31;;;19.28;64.55
50268;BME280;36153;50.960;6.220;2022-10-17T02:24:46;100643.16;;;19.16;65.14
50268;BME280;36153;50.960;6.220;2022-10-17T02:27:55;100636.31;;;19.07;64.96
50268;BME280;36153;50.960;6.220;2022-10-17T02:31:21;100635.38;;;19.10;65.09
50268;BME280;36153;50.960;6.220;2022-10-17T02:34:27;100636.16;;;19.14;65.44
50268;BME280;36153;50.960;6.220;2022-10-17T02:37:30;100638.66;;;19.21;65.22
50268;BME280;36153;50.960;6.220;2022-10-17T02:40:31;100633.31;;;19.24;65.23
50268;BME280;36153;50.960;6.220;2022-10-17T02:43:33;100633.34;;;19.23;64.98
50268;BME280;36153;50.960;6.220;2022-10-17T02:46:36;100629.72;;;19.27;65.09
50268;BME280;36153;50.960;6.220;2022-10-17T02:49:40;100631.41;;;19.31;64.91
50268;BME280;36153;50.960;6.220;2022-10-17T02:52:51;100634.63;;;19.44;64.88
50268;BME280;36153;50.960;6.220;2022-10-17T02:55:58;100632.22;;;19.72;64.83
50268;BME280;36153;50.960;6.220;2022-10-17T02:59:01;100628.63;;;19.75;63.82
50268;BME280;36153;50.960;6.220;2022-10-17T03:02:04;100637.28;;;19.82;64.34
50268;BME280;36153;50.960;6.220;2022-10-17T03:05:05;100632.31;;;19.68;63.48
50268;BME280;36153;50.960;6.220;2022-10-17T03:08:05;100637.81;;;19.58;63.79
50268;BME280;36153;50.960;6.220;2022-10-17T03:11:06;100636.13;;;19.56;63.74
50268;BME280;36153;50.960;6.220;2022-10-17T03:14:06;100641.56;;;19.48;63.70
50268;BME280;36153;50.960;6.220;2022-10-17T03:17:06;100637.75;;;19.61;64.43
50268;BME280;36153;50.960;6.220;2022-10-17T03:20:07;100641.06;;;19.70;63.43
50268;BME280;36153;50.960;6.220;2022-10-17T03:23:07;100645.66;;;19.61;63.78
50268;BME280;36153;50.960;6.220;2022-10-17T03:26:09;100653.22;;;19.77;63.69
50268;BME280;36153;50.960;6.220;2022-10-17T03:29:09;100654.69;;;19.90;63.65
50268;BME280;36153;50.960;6.220;2022-10-17T03:32:09;100650.81;;;20.04;63.50
50268;BME280;36153;50.960;6.220;2022-10-17T03:35:10;100663.69;;;20.18;63.17
50268;BME280;36153;50.960;6.220;2022-10-17T03:38:10;100664.00;;;20.40;63.16
50268;BME280;36153;50.960;6.220;2022-10-17T03:41:11;100660.31;;;20.45;62.67
50268;BME280;36153;50.960;6.220;2022-10-17T03:44:12;100658.47;;;20.49;62.88
50268;BME280;36153;50.960;6.220;2022-10-17T03:47:12;100665.41;;;20.53;62.89
50268;BME280;36153;50.960;6.220;2022-10-17T03:50:12;100666.81;;;20.65;62.39
50268;BME280;36153;50.960;6.220;2022-10-17T03:53:13;100665.88;;;20.69;62.10
50268;BME280;36153;50.960;6.220;2022-10-17T03:56:17;100664.81;;;20.75;62.24
50268;BME280;36153;50.960;6.220;2022-10-17T03:59:18;100672.47;;;20.86;61.63
50268;BME280;36153;50.960;6.220;2022-10-17T04:02:18;100674.00;;;20.93;61.52
50268;BME280;36153;50.960;6.220;2022-10-17T04:05:18;100656.88;;;20.75;62.33
50268;BME280;36153;50.960;6.220;2022-10-17T04:08:19;100654.69;;;20.91;61.57
50268;BME280;36153;50.960;6.220;2022-10-17T04:11:20;100655.53;;;20.91;61.44
50268;BME280;36153;50.960;6.220;2022-10-17T04:14:20;100659.94;;;20.92;61.68
50268;BME280;36153;50.960;6.220;2022-10-17T04:17:21;100655.88;;;20.79;61.64
50268;BME280;36153;50.960;6.220;2022-10-17T04:20:21;100650.25;;;20.91;61.65
50268;BME280;36153;50.960;6.220;2022-10-17T04:23:22;100664.03;;;21.03;61.73
50268;BME280;36153;50.960;6.220;2022-10-17T04:26:23;100664.47;;;21.19;61.63
50268;BME280;36153;50.960;6.220;2022-10-17T04:29:24;100667.31;;;21.41;60.38
50268;BME280;36153;50.960;6.220;2022-10-17T04:32:24;100666.88;;;21.56;59.98
50268;BME280;36153;50.960;6.220;2022-10-17T04:35:25;100677.09;;;21.69;59.90
50268;BME280;36153;50.960;6.220;2022-10-17T04:38:26;100668.06;;;21.74;59.36
50268;BME280;36153;50.960;6.220;2022-10-17T04:41:26;100659.78;;;21.83;58.67
50268;BME280;36153;50.960;6.220;2022-10-17T04:44:27;100659.00;;;21.81;58.62
50268;BME280;36153;50.960;6.220;2022-10-17T04:47:29;100663.22;;;21.87;58.68
50268;BME280;36153;50.960;6.220;2022-10-17T04:50:30;100665.72;;;21.92;58.41
50268;BME280;36153;50.960;6.220;2022-10-17T04:53:32;100666.59;;;21.92;58.66
50268;BME280;36153;50.960;6.220;2022-10-17T04:56:33;100671.47;;;21.78;58.92
50268;BME280;36153;50.960;6.220;2022-10-17T04:59:33;100685.72;;;21.75;58.87
50268;BME280;36153;50.960;6.220;2022-10-17T05:02:34;100682.56;;;21.89;58.66
50268;BME280;36153;50.960;6.220;2022-10-17T05:05:38;100681.88;;;21.84;58.69
50268;BME280;36153;50.960;6.220;2022-10-17T05:08:39;100692.28;;;21.90;58.58
50268;BME280;36153;50.960;6.220;2022-10-17T05:11:41;100687.88;;;21.89;58.40
50268;BME280;36153;50.960;6.220;2022-10-17T05:14:44;100695.81;;;21.91;58.34
50268;BME280;36153;50.960;6.220;2022-10-17T05:17:44;100707.38;;;21.88;57.91
50268;BME280;36153;50.960;6.220;2022-10-17T05:20:45;100713.53;;;21.89;58.04
50268;BME280;36153;50.960;6.220;2022-10-17T05:23:45;100712.97;;;22.06;57.54
50268;BME280;36153;50.960;6.220;2022-10-17T05:26:45;100713.94;;;22.03;57.51
50268;BME280;36153;50.960;6.220;2022-10-17T05:29:46;100714.09;;;21.98;57.21
50268;BME280;36153;50.960;6.220;2022-10-17T05:32:46;100724.78;;;21.95;57.06
50268;BME280;36153;50.960;6.220;2022-10-17T05:35:46;100719.09;;;21.81;57.36
50268;BME280;36153;50.960;6.220;2022-10-17T05:38:50;100720.03;;;21.78;57.62
50268;BME280;36153;50.960;6.220;2022-10-17T05:41:51;100720.16;;;21.74;58.01
50268;BME280;36153;50.960;6.220;2022-10-17T05:44:51;100723.38;;;21.85;57.49
50268;BME280;36153;50.960;6.220;2022-10-17T05:47:52;100711.59;;;21.94;57.45
50268;BME280;36153;50.960;6.220;2022-10-17T05:51:05;100721.53;;;21.87;57.51
50268;BME280;36153;50.960;6.220;2022-10-17T05:54:06;100721.63;;;21.84;57.12
50268;BME280;36153;50.960;6.220;2022-10-17T05:57:07;100721.41;;;21.90;56.80
50268;BME280;36153;50.960;6.220;2022-10-17T06:00:07;100729.53;;;21.86;57.30
50268;BME280;36153;50.960;6.220;2022-10-17T06:03:10;100729.75;;;21.78;57.17
50268;BME280;36153;50.960;6.220;2022-10-17T06:06:12;100730.50;;;21.83;56.72
50268;BME280;36153;50.960;6.220;2022-10-17T06:09:13;100724.50;;;21.76;57.18
50268;BME280;36153;50.960;6.220;2022-10-17T06:12:13;100735.28;;;21.98;56.95
50268;BME280;36153;50.960;6.220;2022-10-17T06:15:14;100732.94;;;21.89;57.14
50268;BME280;36153;50.960;6.220;2022-10-17T06:18:14;100741.03;;;21.85;57.13
50268;BME280;36153;50.960;6.220;2022-10-17T06:21:18;100737.16;;;21.96;56.52
50268;BME280;36153;50.960;6.220;2022-10-17T06:24:20;100743.41;;;21.94;57.06
50268;BME280;36153;50.960;6.220;2022-10-17T06:27:21;100752.78;;;22.04;56.45
50268;BME280;36153;50.960;6.220;2022-10-17T06:30:21;100754.69;;;22.01;56.43
50268;BME280;36153;50.960;6.220;2022-10-17T06:33:22;100754.75;;;21.97;56.29
50268;BME280;36153;50.960;6.220;2022-10-17T06:36:22;100761.25;;;22.15;56.31
50268;BME280;36153;50.960;6.220;2022-10-17T06:39:23;100765.47;;;22.21;56.15
50268;BME280;36153;50.960;6.220;2022-10-17T06:42:25;100760.72;;;22.32;56.05
50268;BME280;36153;50.960;6.220;2022-10-17T06:45:26;100758.34;;;22.23;56.07
50268;BME280;36153;50.960;6.220;2022-10-17T06:48:26;100765.47;;;22.23;55.98
50268;BME280;36153;50.960;6.220;2022-10-17T06:51:26;100766.22;;;22.26;55.86
50268;BME280;36153;50.960;6.220;2022-10-17T06:54:27;100759.84;;;22.32;55.67
50268;BME280;36153;50.960;6.220;2022-10-17T06:57:27;100767.69;;;22.37;55.71
50268;BME280;36153;50.960;6.220;2022-10-17T07:00:27;100762.06;;;22.46;55.45
50268;BME280;36153;50.960;6.220;2022-10-17T07:03:28;100761.09;;;22.48;55.19
50268;BME280;36153;50.960;6.220;2022-10-17T07:06:28;100764.19;;;22.61;55.01
50268;BME280;36153;50.960;6.220;2022-10-17T07:09:30;100756.44;;;22.55;55.01
50268;BME280;36153;50.960;6.220;2022-10-17T07:12:31;100761.44;;;22.64;54.86
50268;BME280;36153;50.960;6.220;2022-10-17T07:15:32;100771.41;;;22.58;54.80
50268;BME280;36153;50.960;6.220;2022-10-17T07:18:32;100773.66;;;22.68;55.13
50268;BME280;36153;50.960;6.220;2022-10-17T07:21:33;100778.09;;;22.68;54.50
50268;BME280;36153;50.960;6.220;2022-10-17T07:24:33;100776.59;;;22.86;54.46
50268;BME280;36153;50.960;6.220;2022-10-17T07:27:33;100784.38;;;22.91;53.99
50268;BME280;36153;50.960;6.220;2022-10-17T07:30:34;100791.50;;;22.90;54.13
50268;BME280;36153;50.960;6.220;2022-10-17T07:33:34;100800.84;;;23.00;53.69
50268;BME280;36153;50.960;6.220;2022-10-17T07:36:35;100801.63;;;23.04;53.47
50268;BME280;36153;50.960;6.220;2022-10-17T07:39:35;100812.38;;;23.26;53.04
50268;BME280;36153;50.960;6.220;2022-10-17T07:42:36;100816.78;;;23.51;52.76
50268;BME280;36153;50.960;6.220;2022-10-17T07:45:36;100814.84;;;23.55;52.49
50268;BME280;36153;50.960;6.220;2022-10-17T07:48:38;100822.63;;;23.61;52.20
50268;BME280;36153;50.960;6.220;2022-10-17T07:51:39;100828.09;;;23.56;52.25
50268;BME280;36153;50.960;6.220;2022-10-17T07:54:39;100830.66;;;23.59;51.96
50268;BME280;36153;50.960;6.220;2022-10-17T07:57:40;100833.81;;;23.69;52.00
50268;BME280;36153;50.960;6.220;2022-10-17T08:00:40;100834.56;;;23.73;52.03
50268;BME280;36153;50.960;6.220;2022-10-17T08:03:42;100837.91;;;23.78;52.01
50268;BME280;36153;50.960;6.220;2022-10-17T08:06:43;100834.34;;;23.79;52.05
50268;BME280;36153;50.960;6.220;2022-10-17T08:09:43;100834.69;;;23.93;52.02
50268;BME280;36153;50.960;6.220;2022-10-17T08:12:44;100846.84;;;24.23;51.60
50268;BME280;36153;50.960;6.220;2022-10-17T08:15:44;100854.13;;;24.17;51.42
50268;BME280;36153;50.960;6.220;2022-10-17T08:18:46;100861.50;;;24.11;50.96
50268;BME280;36153;50.960;6.220;2022-10-17T08:21:47;100862.88;;;24.43;50.88
50268;BME280;36153;50.960;6.220;2022-10-17T08:24:49;100861.31;;;24.37;50.69
50268;BME280;36153;50.960;6.220;2022-10-17T08:27:49;100885.25;;;24.37;49.98
50268;BME280;36153;50.960;6.220;2022-10-17T08:30:50;100889.66;;;24.39;50.24
50268;BME280;36153;50.960;6.220;2022-10-17T08:33:50;100889.34;;;24.46;50.28
50268;BME280;36153;50.960;6.220;2022-10-17T08:36:50;100887.56;;;24.69;50.13
50268;BME280;36153;50.960;6.220;2022-10-17T08:39:51;100892.13;;;24.43;50.08
50268;BME280;36153;50.960;6.220;2022-10-17T08:46:04;100898.44;;;24.41;49.44
50268;BME280;36153;50.960;6.220;2022-10-17T08:49:21;100901.53;;;24.52;50.01
50268;BME280;36153;50.960;6.220;2022-10-17T08:55:36;100891.25;;;24.87;49.02
50268;BME280;36153;50.960;6.220;2022-10-17T08:58:37;100901.66;;;24.93;48.61
50268;BME280;36153;50.960;6.220;2022-10-17T09:01:59;100905.56;;;25.05;48.36
50268;BME280;36153;50.960;6.220;2022-10-17T09:05:27;100920.59;;;24.85;48.48
50268;BME280;36153;50.960;6.220;2022-10-17T09:08:37;100910.16;;;24.81;48.56
50268;BME280;36153;50.960;6.220;2022-10-17T09:15:30;100913.69;;;24.81;48.75
50268;BME280;36153;50.960;6.220;2022-10-17T09:18:16;100915.91;;;24.92;48.82
50268;BME280;36153;50.960;6.220;2022-10-17T09:21:42;100924.06;;;25.10;48.79
50268;BME280;36153;50.960;6.220;2022-10-17T09:25:05;100926.66;;;25.11;48.64
50268;BME280;36153;50.960;6.220;2022-10-17T09:31:15;100936.00;;;24.99;49.24
50268;BME280;36153;50.960;6.220;2022-10-17T09:34:17;100941.31;;;24.79;49.68
50268;BME280;36153;50.960;6.220;2022-10-17T09:37:18;100949.91;;;24.63;49.48
50268;BME280;36153;50.960;6.220;2022-10-17T09:40:25;100937.78;;;24.78;49.26
50268;BME280;36153;50.960;6.220;2022-10-17T09:43:26;100938.91;;;24.49;49.81
50268;BME280;36153;50.960;6.220;2022-10-17T09:46:35;100939.91;;;24.46;50.02
50268;BME280;36153;50.960;6.220;2022-10-17T09:49:46;100954.63;;;24.33;49.98
50268;BME280;36153;50.960;6.220;2022-10-17T09:52:47;100957.38;;;24.30;50.25
50268;BME280;36153;50.960;6.220;2022-10-17T09:55:55;100957.31;;;24.31;49.83
50268;BME280;36153;50.960;6.220;2022-10-17T09:58:57;100968.84;;;24.32;50.40
50268;BME280;36153;50.960;6.220;2022-10-17T10:02:18;100962.56;;;24.34;49.96
50268;BME280;36153;50.960;6.220;2022-10-17T10:05:19;100970.34;;;24.39;50.12
50268;BME280;36153;50.960;6.220;2022-10-17T10:08:21;100976.31;;;24.46;49.92
50268;BME280;36153;50.960;6.220;2022-10-17T10:11:44;100981.19;;;24.34;49.90
50268;BME280;36153;50.960;6.220;2022-10-17T10:14:45;100995.06;;;24.43;50.22
50268;BME280;36153;50.960;6.220;2022-10-17T10:17:45;101009.84;;;24.50;49.78
50268;BME280;36153;50.960;6.220;2022-10-17T10:20:46;101004.41;;;24.53;50.20
50268;BME280;36153;50.960;6.220;2022-10-17T10:24:11;101007.25;;;24.48;49.97
50268;BME280;36153;50.960;6.220;2022-10-17T10:27:14;100985.88;;;24.74;49.84
50268;BME280;36153;50.960;6.220;2022-10-17T10:30:17;100995.06;;;24.66;49.74
50268;BME280;36153;50.960;6.220;2022-10-17T10:33:24;100986.41;;;24.60;49.87
50268;BME280;36153;50.960;6.220;2022-10-17T10:39:51;100978.19;;;24.88;49.63
50268;BME280;36153;50.960;6.220;2022-10-17T10:42:54;101001.31;;;24.87;49.80
50268;BME280;36153;50.960;6.220;2022-10-17T10:45:56;101000.63;;;24.82;50.32
50268;BME280;36153;50.960;6.220;2022-10-17T10:48:58;101006.38;;;24.94;49.65
50268;BME280;36153;50.960;6.220;2022-10-17T10:52:00;101006.34;;;25.16;49.79
50268;BME280;36153;50.960;6.220;2022-10-17T10:55:14;101006.22;;;25.19;49.58
50268;BME280;36153;50.960;6.220;2022-10-17T10:58:47;101015.47;;;25.32;49.08
50268;BME280;36153;50.960;6.220;2022-10-17T11:04:57;101019.78;;;25.57;49.40
50268;BME280;36153;50.960;6.220;2022-10-17T11:08:09;101034.34;;;25.69;48.76
50268;BME280;36153;50.960;6.220;2022-10-17T11:11:22;101034.03;;;25.97;48.29
50268;BME280;36153;50.960;6.220;2022-10-17T11:14:39;101049.22;;;26.16;47.84
50268;BME280;36153;50.960;6.220;2022-10-17T11:18:02;101060.56;;;26.21;47.97
50268;BME280;36153;50.960;6.220;2022-10-17T11:27:44;101065.38;;;25.92;47.77
50268;BME280;36153;50.960;6.220;2022-10-17T11:30:51;101078.63;;;25.94;47.97
50268;BME280;36153;50.960;6.220;2022-10-17T11:34:01;101068.63;;;25.78;48.42
50268;BME280;36153;50.960;6.220;2022-10-17T11:37:10;101092.53;;;25.59;48.47
50268;BME280;36153;50.960;6.220;2022-10-17T11:40:15;101085.88;;;25.49;48.52
50268;BME280;36153;50.960;6.220;2022-10-17T11:46:27;101096.91;;;25.39;49.29
50268;BME280;36153;50.960;6.220;2022-10-17T11:49:35;101101.59;;;25.55;49.26
50268;BME280;36153;50.960;6.220;2022-10-17T11:52:40;101104.16;;;25.58;49.24
50268;BME280;36153;50.960;6.220;2022-10-17T11:55:43;101100.94;;;25.50;48.81
50268;BME280;36153;50.960;6.220;2022-10-17T12:02:14;101095.84;;;25.44;49.11
50268;BME280;36153;50.960;6.220;2022-10-17T12:05:32;101094.22;;;25.17;48.69
50268;BME280;36153;50.960;6.220;2022-10-17T12:08:35;101097.16;;;25.33;48.86
50268;BME280;36153;50.960;6.220;2022-10-17T12:11:44;101102.09;;;25.43;49.07
50268;BME280;36153;50.960;6.220;2022-10-17T12:14:49;101100.75;;;25.32;49.28
50268;BME280;36153;50.960;6.220;2022-10-17T12:18:01;101107.75;;;25.57;48.82
50268;BME280;36153;50.960;6.220;2022-10-17T12:21:02;101108.81;;;25.53;49.20
50268;BME280;36153;50.960;6.220;2022-10-17T12:24:03;101105.59;;;25.45;48.87
50268;BME280;36153;50.960;6.220;2022-10-17T12:30:27;101123.81;;;25.33;49.28
50268;BME280;36153;50.960;6.220;2022-10-17T12:33:35;101120.50;;;25.27;49.14
50268;BME280;36153;50.960;6.220;2022-10-17T12:36:37;101127.22;;;25.13;49.39
50268;BME280;36153;50.960;6.220;2022-10-17T12:42:49;101134.25;;;24.92;50.30
50268;BME280;36153;50.960;6.220;2022-10-17T12:45:57;101127.81;;;24.98;49.84
50268;BME280;36153;50.960;6.220;2022-10-17T12:49:00;101128.47;;;25.04;50.14
50268;BME280;36153;50.960;6.220;2022-10-17T12:55:12;101127.59;;;25.04;49.86
50268;BME280;36153;50.960;6.220;2022-10-17T12:58:15;101136.75;;;24.97;50.03
50268;BME280;36153;50.960;6.220;2022-10-17T13:01:29;101137.16;;;25.10;49.79
50268;BME280;36153;50.960;6.220;2022-10-17T13:04:31;101143.41;;;24.85;50.64
50268;BME280;36153;50.960;6.220;2022-10-17T13:07:40;101140.69;;;24.86;50.61
50268;BME280;36153;50.960;6.220;2022-10-17T13:10:44;101152.19;;;24.87;50.63
50268;BME280;36153;50.960;6.220;2022-10-17T13:13:51;101155.44;;;24.95;50.88
50268;BME280;36153;50.960;6.220;2022-10-17T13:17:00;101155.69;;;24.89;50.73
50268;BME280;36153;50.960;6.220;2022-10-17T13:20:02;101163.75;;;24.87;50.82
50268;BME280;36153;50.960;6.220;2022-10-17T13:23:03;101152.78;;;24.95;50.96
50268;BME280;36153;50.960;6.220;2022-10-17T13:26:11;101158.81;;;25.00;50.90
50268;BME280;36153;50.960;6.220;2022-10-17T13:29:15;101168.81;;;24.94;50.89
50268;BME280;36153;50.960;6.220;2022-10-17T13:32:15;101166.47;;;24.86;51.12
50268;BME280;36153;50.960;6.220;2022-10-17T13:35:24;101167.84;;;24.96;50.77
50268;BME280;36153;50.960;6.220;2022-10-17T13:38:28;101181.16;;;24.96;51.32
50268;BME280;36153;50.960;6.220;2022-10-17T13:41:31;101177.84;;;24.90;51.05
50268;BME280;36153;50.960;6.220;2022-10-17T13:44:34;101171.53;;;24.92;51.13
50268;BME280;36153;50.960;6.220;2022-10-17T13:47:36;101177.00;;;24.89;51.39
50268;BME280;36153;50.960;6.220;2022-10-17T13:50:40;101187.53;;;24.92;51.19
50268;BME280;36153;50.960;6.220;2022-10-17T13:53:41;101191.22;;;24.88;51.15
50268;BME280;36153;50.960;6.220;2022-10-17T13:56:44;101182.31;;;24.89;51.62
50268;BME280;36153;50.960;6.220;2022-10-17T13:59:46;101193.03;;;24.87;51.22
50268;BME280;36153;50.960;6.220;2022-10-17T14:02:48;101199.56;;;24.79;51.54
50268;BME280;36153;50.960;6.220;2022-10-17T14:06:05;101198.47;;;24.84;51.20
50268;BME280;36153;50.960;6.220;2022-10-17T14:09:17;101211.25;;;24.75;51.45
50268;BME280;36153;50.960;6.220;2022-10-17T14:12:19;101217.13;;;24.84;51.58
50268;BME280;36153;50.960;6.220;2022-10-17T14:15:23;101223.88;;;24.69;51.77
50268;BME280;36153;50.960;6.220;2022-10-17T14:18:30;101219.84;;;24.56;51.88
50268;BME280;36153;50.960;6.220;2022-10-17T14:21:31;101239.88;;;24.43;52.49
50268;BME280;36153;50.960;6.220;2022-10-17T14:24:33;101228.47;;;24.64;52.01
50268;BME280;36153;50.960;6.220;2022-10-17T14:27:53;101234.50;;;24.69;52.01
50268;BME280;36153;50.960;6.220;2022-10-17T14:34:23;101248.34;;;24.54;53.12
50268;BME280;36153;50.960;6.220;2022-10-17T14:37:44;101248.66;;;24.45;53.91
50268;BME280;36153;50.960;6.220;2022-10-17T14:41:05;101249.00;;;24.34;54.33
50268;BME280;36153;50.960;6.220;2022-10-17T14:44:21;101257.16;;;24.29;54.92
50268;BME280;36153;50.960;6.220;2022-10-17T14:47:26;101256.44;;;23.97;55.63
50268;BME280;36153;50.960;6.220;2022-10-17T14:50:28;101256.44;;;23.97;55.62
50268;BME280;36153;50.960;6.220;2022-10-17T14:53:29;101249.19;;;24.02;56.30
50268;BME280;36153;50.960;6.220;2022-10-17T14:56:35;101232.03;;;24.11;56.37
50268;BME280;36153;50.960;6.220;2022-10-17T14:59:38;101242.75;;;24.10;56.36
50268;BME280;36153;50.960;6.220;2022-10-17T15:02:38;101251.53;;;24.12;56.65
50268;BME280;36153;50.960;6.220;2022-10-17T15:05:38;101261.97;;;23.91;57.12
50268;BME280;36153;50.960;6.220;2022-10-17T15:08:39;101278.00;;;23.86;57.81
50268;BME280;36153;50.960;6.220;2022-10-17T15:11:39;101290.56;;;23.83;57.80
50268;BME280;36153;50.960;6.220;2022-10-17T15:14:39;101307.84;;;23.68;58.51
50268;BME280;36153;50.960;6.220;2022-10-17T15:17:40;101315.59;;;23.46;58.97
50268;BME280;36153;50.960;6.220;2022-10-17T15:20:41;101318.34;;;23.43;59.14
50268;BME280;36153;50.960;6.220;2022-10-17T15:23:42;101310.91;;;23.54;59.61
50268;BME280;36153;50.960;6.220;2022-10-17T15:26:42;101325.31;;;23.47;58.86
50268;BME280;36153;50.960;6.220;2022-10-17T15:29:43;101321.50;;;23.24;59.52
50268;BME280;36153;50.960;6.220;2022-10-17T15:32:44;101326.44;;;23.05;60.91
50268;BME280;36153;50.960;6.220;2022-10-17T15:35:44;101335.59;;;22.93;61.26
50268;BME280;36153;50.960;6.220;2022-10-17T15:38:45;101341.22;;;22.81;62.44
50268;BME280;36153;50.960;6.220;2022-10-17T15:41:45;101342.25;;;22.75;62.92
50268;BME280;36153;50.960;6.220;2022-10-17T15:44:47;101346.25;;;22.57;63.34
50268;BME280;36153;50.960;6.220;2022-10-17T15:48:01;101347.31;;;22.50;63.25
50268;BME280;36153;50.960;6.220;2022-10-17T15:51:03;101352.88;;;22.41;63.43
50268;BME280;36153;50.960;6.220;2022-10-17T15:54:04;101353.00;;;22.35;63.94
50268;BME280;36153;50.960;6.220;2022-10-17T15:57:05;101362.97;;;22.23;63.82
50268;BME280;36153;50.960;6.220;2022-10-17T16:00:13;101367.19;;;22.32;63.87
50268;BME280;36153;50.960;6.220;2022-10-17T16:03:14;101368.06;;;22.31;63.82
50268;BME280;36153;50.960;6.220;2022-10-17T16:06:18;101362.84;;;22.28;64.09
50268;BME280;36153;50.960;6.220;2022-10-17T16:09:19;101359.31;;;22.29;64.14
50268;BME280;36153;50.960;6.220;2022-10-17T16:12:26;101351.31;;;22.30;64.20
50268;BME280;36153;50.960;6.220;2022-10-17T16:15:27;101340.53;;;22.40;64.34
50268;BME280;36153;50.960;6.220;2022-10-17T16:18:28;101338.91;;;22.31;64.19
50268;BME280;36153;50.960;6.220;2022-10-17T16:21:32;101334.94;;;22.50;63.45
50268;BME280;36153;50.960;6.220;2022-10-17T16:24:33;101341.22;;;22.48;63.68
50268;BME280;36153;50.960;6.220;2022-10-17T16:27:33;101361.56;;;22.46;63.58
50268;BME280;36153;50.960;6.220;2022-10-17T16:30:41;101378.69;;;22.32;63.68
50268;BME280;36153;50.960;6.220;2022-10-17T16:33:44;101385.16;;;22.19;64.07
50268;BME280;36153;50.960;6.220;2022-10-17T16:36:44;101390.50;;;22.17;64.02
50268;BME280;36153;50.960;6.220;2022-10-17T16:39:45;101385.41;;;22.08;64.05
50268;BME280;36153;50.960;6.220;2022-10-17T16:42:51;101390.94;;;21.97;64.66
50268;BME280;36153;50.960;6.220;2022-10-17T16:45:51;101391.34;;;22.20;64.05
50268;BME280;36153;50.960;6.220;2022-10-17T16:48:53;101389.53;;;22.22;63.74
50268;BME280;36153;50.960;6.220;2022-10-17T16:51:53;101396.72;;;22.16;63.54
50268;BME280;36153;50.960;6.220;2022-10-17T16:54:54;101395.56;;;22.28;63.58
50268;BME280;36153;50.960;6.220;2022-10-17T16:57:54;101399.19;;;22.24;63.35
50268;BME280;36153;50.960;6.220;2022-10-17T17:00:59;101420.75;;;22.09;63.16
50268;BME280;36153;50.960;6.220;2022-10-17T17:03:59;101411.69;;;22.19;63.07
50268;BME280;36153;50.960;6.220;2022-10-17T17:07:00;101409.13;;;22.16;63.25
50268;BME280;36153;50.960;6.220;2022-10-17T17:10:01;101411.88;;;22.10;63.30
50268;BME280;36153;50.960;6.220;2022-10-17T17:13:01;101417.28;;;22.05;62.88
50268;BME280;36153;50.960;6.220;2022-10-17T17:19:12;101422.06;;;21.88;63.52
50268;BME280;36153;50.960;6.220;2022-10-17T17:22:13;101423.84;;;21.87;63.28